Terminal Aerodrome Forecast
Issued by NWS

Home | Current Version | Previous Version | Graphics & Text | Print | Product List | Glossary On
Versions: 1 2 3 4 5 6 7 8 9 10 11 12 13 14 15 16 17 18
000
FTUS43 KMPX 272339
TAFRWF
TAF
KRWF 272339Z 2800/2824 23005KT P6SM SCT250
     FM280100 VRB03KT P6SM SKC
     FM280500 12004KT P6SM BKN250
     FM281400 16015G24KT P6SM BKN100 OVC250
     FM281700 17018G28KT P6SM SCT070 BKN150=

USA.gov is the U.S. government's official web portal to all federal, state and local government web resources and services.